Terminal Aerodrome Forecast
Issued by NWS

Home | Current Version | Previous Version | Graphics & Text | Print | Product List | Glossary On
Versions: 1 2 3 4 5 6 7 8 9 10 11 12 13 14 15
000
FTUS43 KBIS 272327
TAFJMS
TAF
KJMS 272327Z 2800/2824 13018KT P6SM SCT040
     FM280600 16015G25KT P6SM VCTS BKN080CB
     FM280900 14015G25KT 5SM SHRA VCTS OVC050CB
     FM281300 26018G27KT P6SM SCT100
     FM281900 28025G40KT P6SM SCT100=

USA.gov is the U.S. government's official web portal to all federal, state and local government web resources and services.